createdAt,value
2022-08-14T00:02:22.243Z,6.97
2022-08-14T00:07:47.953Z,6.43
2022-08-14T00:13:12.790Z,6.30
2022-08-14T00:19:06.306Z,6.05
2022-08-14T00:24:23.198Z,6.15
2022-08-14T00:29:51.734Z,6.80
2022-08-14T00:35:14.723Z,6.80
2022-08-14T00:40:37.100Z,6.40
2022-08-14T00:46:05.294Z,6.50
2022-08-14T00:51:38.020Z,6.97
2022-08-14T00:57:03.443Z,7.10
2022-08-14T01:02:28.356Z,6.88
2022-08-14T01:08:00.920Z,6.85
2022-08-14T01:13:42.208Z,7.00
2022-08-14T01:19:23.988Z,6.55
2022-08-14T01:24:47.085Z,7.32
2022-08-14T01:30:10.280Z,7.30
2022-08-14T01:36:05.103Z,6.75
2022-08-14T01:41:16.502Z,7.43
2022-08-14T01:46:46.240Z,6.78
2022-08-14T01:52:33.721Z,6.90
2022-08-14T01:58:02.270Z,7.75
2022-08-14T02:03:41.342Z,7.68
2022-08-14T02:09:19.402Z,7.05
2022-08-14T02:14:59.128Z,7.43
2022-08-14T02:20:24.242Z,7.75
2022-08-14T02:25:54.753Z,7.65
2022-08-14T02:31:18.052Z,7.50
2022-08-14T02:37:03.602Z,7.82
2022-08-14T02:42:37.221Z,6.97
2022-08-14T02:48:01.836Z,7.53
2022-08-14T02:53:24.947Z,8.43
2022-08-14T02:58:50.674Z,7.93
2022-08-14T03:04:15.443Z,8.63
2022-08-14T03:09:41.849Z,8.63
2022-08-14T03:15:22.556Z,8.45
2022-08-14T03:20:44.743Z,8.57
2022-08-14T03:26:29.567Z,8.18
2022-08-14T03:31:54.887Z,8.27
2022-08-14T03:37:51.841Z,8.35
2022-08-14T03:43:05.730Z,9.40
2022-08-14T03:48:31.105Z,9.07
2022-08-14T03:54:02.950Z,8.25
2022-08-14T03:59:28.698Z,8.93
2022-08-14T04:04:52.829Z,8.98
2022-08-14T04:10:17.460Z,8.95
2022-08-14T04:16:01.045Z,9.50
2022-08-14T04:21:28.370Z,8.73
2022-08-14T04:26:50.599Z,9.25
2022-08-14T04:32:58.522Z,8.35
2022-08-14T04:38:36.014Z,9.02
2022-08-14T04:43:57.266Z,8.45
2022-08-14T04:49:20.139Z,9.13
2022-08-14T04:54:42.782Z,9.10
2022-08-14T05:00:06.856Z,8.68
2022-08-14T05:05:39.579Z,9.25
2022-08-14T05:11:04.897Z,9.20
2022-08-14T05:16:31.720Z,9.43
2022-08-14T05:22:15.582Z,8.70
2022-08-14T05:27:40.167Z,8.70
2022-08-14T05:33:04.865Z,9.57
2022-08-14T05:38:35.275Z,9.00
2022-08-14T05:43:57.623Z,9.50
2022-08-14T05:49:20.102Z,8.90
2022-08-14T05:54:42.646Z,9.40
2022-08-14T06:00:07.192Z,9.23
2022-08-14T06:05:31.838Z,9.13
2022-08-14T06:11:02.946Z,9.07
2022-08-14T06:16:26.483Z,8.90
2022-08-14T06:21:52.086Z,9.13
2022-08-14T06:27:21.108Z,9.57
2022-08-14T06:32:46.198Z,9.32
2022-08-14T06:38:09.002Z,8.88
2022-08-14T06:43:33.778Z,10.65
2022-08-14T06:48:56.014Z,9.25
2022-08-14T06:54:18.471Z,9.02
2022-08-14T06:59:41.997Z,9.13
2022-08-14T07:05:23.614Z,9.70
2022-08-14T07:10:51.812Z,8.88
2022-08-14T07:16:14.642Z,9.23
2022-08-14T07:21:41.819Z,9.10
2022-08-14T07:27:04.343Z,8.90
2022-08-14T07:32:33.914Z,9.77
2022-08-14T07:37:56.869Z,8.70
2022-08-14T07:43:19.526Z,8.70
2022-08-14T07:48:44.040Z,9.00
2022-08-14T07:54:11.707Z,7.95
2022-08-14T07:59:42.306Z,7.05
2022-08-14T08:05:06.718Z,6.90
2022-08-14T08:11:02.490Z,7.13
2022-08-14T08:16:14.650Z,7.13
2022-08-14T08:21:43.769Z,7.40
2022-08-14T08:27:17.571Z,6.55
2022-08-14T08:32:42.345Z,6.10
2022-08-14T08:39:15.495Z,5.35
2022-08-14T08:43:52.686Z,5.55
2022-08-14T08:49:15.339Z,5.57
2022-08-14T08:54:39.217Z,5.57
2022-08-14T09:00:02.479Z,5.22
2022-08-14T09:05:34.715Z,4.75
2022-08-14T09:10:57.820Z,4.60
2022-08-14T09:16:23.671Z,5.22
2022-08-14T09:21:47.656Z,4.82
2022-08-14T09:27:10.955Z,4.88
2022-08-14T09:32:59.155Z,5.10
2022-08-14T09:38:47.637Z,4.30
2022-08-14T09:44:29.954Z,4.53
2022-08-14T09:49:54.361Z,4.78
2022-08-14T09:55:21.557Z,4.90
2022-08-14T10:01:00.691Z,4.72
2022-08-14T10:06:28.604Z,5.35
2022-08-14T10:11:58.975Z,5.10
2022-08-14T10:17:27.478Z,4.97
2022-08-14T10:23:12.191Z,5.47
2022-08-14T10:29:18.374Z,5.32
2022-08-14T10:34:36.538Z,5.15
2022-08-14T10:40:10.683Z,4.57
2022-08-14T10:45:42.017Z,4.60
2022-08-14T10:51:09.177Z,4.65
2022-08-14T10:56:35.611Z,4.53
2022-08-14T11:01:59.905Z,4.85
2022-08-14T11:07:22.974Z,4.60
2022-08-14T11:12:49.742Z,4.70
2022-08-14T11:18:20.312Z,4.53
2022-08-14T11:23:57.270Z,4.18
2022-08-14T11:29:22.265Z,4.70
2022-08-14T11:34:50.242Z,4.13
2022-08-14T11:40:16.796Z,4.22
2022-08-14T11:45:50.454Z,4.20
2022-08-14T11:51:17.918Z,4.13
2022-08-14T11:56:41.735Z,3.78
2022-08-14T12:03:01.837Z,3.15
2022-08-14T12:08:04.124Z,2.85
2022-08-14T12:13:34.691Z,2.55
2022-08-14T12:18:58.539Z,3.00
2022-08-14T12:24:35.829Z,3.22
2022-08-14T12:30:00.035Z,3.17
2022-08-14T12:35:23.811Z,3.25
2022-08-14T12:40:51.516Z,3.45
2022-08-14T12:46:35.928Z,3.03
2022-08-14T12:52:00.096Z,3.28
2022-08-14T12:57:24.306Z,3.00
2022-08-14T13:02:54.967Z,3.40
2022-08-14T13:08:32.882Z,3.00
2022-08-14T13:13:59.486Z,2.88
2022-08-14T13:19:24.350Z,2.90
2022-08-14T13:24:49.298Z,2.47
2022-08-14T13:30:14.514Z,2.45
2022-08-14T13:35:47.661Z,2.50
2022-08-14T13:41:11.312Z,2.67
2022-08-14T13:46:34.732Z,2.55
2022-08-14T13:51:59.133Z,2.33
2022-08-14T13:57:22.842Z,2.63
2022-08-14T14:02:54.442Z,2.28
2022-08-14T14:08:18.734Z,2.67
2022-08-14T14:13:45.354Z,2.67
2022-08-14T14:19:09.713Z,2.80
2022-08-14T14:24:34.795Z,2.92
2022-08-14T14:29:59.410Z,2.33
2022-08-14T14:35:22.663Z,2.50
2022-08-14T14:41:01.025Z,2.60
2022-08-14T14:46:36.610Z,2.90
2022-08-14T14:51:59.503Z,2.80
2022-08-14T14:57:22.122Z,3.53
2022-08-14T15:02:49.621Z,3.13
2022-08-14T15:08:16.825Z,2.80
2022-08-14T15:13:43.103Z,3.63
2022-08-14T15:19:15.379Z,3.33
2022-08-14T15:24:38.695Z,3.25
2022-08-14T15:30:03.857Z,3.85
2022-08-14T15:35:28.051Z,3.80
2022-08-14T15:40:56.206Z,4.20
2022-08-14T15:46:25.305Z,4.10
2022-08-14T15:52:05.059Z,4.15
2022-08-14T15:57:27.568Z,4.70
2022-08-14T16:02:49.962Z,4.38
2022-08-14T16:08:26.562Z,4.68
2022-08-14T16:13:51.980Z,4.25
2022-08-14T16:19:21.362Z,4.80
2022-08-14T16:24:59.842Z,4.60
2022-08-14T16:30:27.754Z,5.03
2022-08-14T16:35:59.544Z,5.38
2022-08-14T16:41:27.314Z,7.28
2022-08-14T16:46:56.834Z,4.97
2022-08-14T16:52:44.108Z,8.55
2022-08-14T16:58:03.602Z,5.10
2022-08-14T17:03:26.050Z,4.88
2022-08-14T17:08:48.457Z,5.10
2022-08-14T17:14:11.034Z,5.35
2022-08-14T17:19:41.242Z,5.28
2022-08-14T17:25:04.910Z,5.07
2022-08-14T17:30:57.028Z,5.30
2022-08-14T17:36:24.291Z,5.25
2022-08-14T17:42:01.807Z,4.85
2022-08-14T17:47:27.320Z,5.30
2022-08-14T17:52:50.777Z,5.00
2022-08-14T17:58:20.772Z,4.75
2022-08-14T18:03:53.189Z,4.97
2022-08-14T18:09:26.004Z,5.55
2022-08-14T18:14:52.899Z,4.63
2022-08-14T18:20:15.861Z,4.78
2022-08-14T18:25:59.104Z,5.43
2022-08-14T18:31:21.447Z,6.03
2022-08-14T18:36:51.235Z,5.80
2022-08-14T18:42:23.865Z,6.20
2022-08-14T18:48:16.152Z,4.95
2022-08-14T18:54:26.129Z,7.45
2022-08-14T18:59:52.624Z,5.07
2022-08-14T19:05:39.446Z,6.22
2022-08-14T19:11:32.395Z,5.70
2022-08-14T19:16:55.177Z,5.97
2022-08-14T19:22:29.920Z,5.80
2022-08-14T19:28:31.546Z,6.55
2022-08-14T19:33:56.384Z,5.90
2022-08-14T19:39:18.940Z,7.07
2022-08-14T19:44:42.824Z,6.70
2022-08-14T19:50:38.268Z,6.35
2022-08-14T19:56:04.772Z,5.95
2022-08-14T20:01:37.283Z,6.35
2022-08-14T20:07:04.383Z,6.40
2022-08-14T20:12:36.610Z,6.57
2022-08-14T20:18:39.001Z,6.28
2022-08-14T20:24:30.947Z,6.47
2022-08-14T20:30:29.655Z,6.55
2022-08-14T20:35:55.911Z,6.25
2022-08-14T20:41:20.419Z,7.47
2022-08-14T20:46:44.917Z,8.02
2022-08-14T20:52:19.171Z,7.45
2022-08-14T20:57:43.602Z,7.50
2022-08-14T21:03:56.331Z,7.13
2022-08-14T21:09:43.956Z,7.15
2022-08-14T21:15:11.371Z,6.63
2022-08-14T21:20:37.082Z,7.20
2022-08-14T21:25:59.868Z,7.93
2022-08-14T21:31:22.487Z,7.43
2022-08-14T21:36:46.692Z,7.10
2022-08-14T21:42:10.973Z,7.47
2022-08-14T21:47:33.690Z,6.95
2022-08-14T21:53:01.033Z,7.45
2022-08-14T21:58:53.332Z,7.32
2022-08-14T22:04:33.047Z,7.50
2022-08-14T22:09:58.468Z,7.65
2022-08-14T22:15:21.943Z,7.90
2022-08-14T22:20:44.803Z,7.50
2022-08-14T22:26:07.464Z,7.63
2022-08-14T22:31:35.080Z,8.35
2022-08-14T22:37:02.625Z,7.40
2022-08-14T22:42:25.575Z,8.98
2022-08-14T22:47:48.111Z,8.07
2022-08-14T22:53:18.439Z,8.23
2022-08-14T22:58:41.965Z,7.60
2022-08-14T23:04:06.390Z,8.10
2022-08-14T23:09:36.718Z,8.52
2022-08-14T23:15:01.324Z,8.40
2022-08-14T23:20:29.439Z,8.77
2022-08-14T23:26:00.681Z,8.70
2022-08-14T23:31:36.417Z,9.30
2022-08-14T23:36:58.796Z,8.90
2022-08-14T23:42:40.074Z,9.20
2022-08-14T23:48:03.115Z,9.25
2022-08-14T23:53:47.996Z,8.75
2022-08-14T23:59:11.018Z,9.60
